sensor_id;sensor_type;location;lat;lon;timestamp;P1;durP1;ratioP1;P2;durP2;ratioP2
52434;SDS011;38354;52.892;6.148;2022-12-18T05:01:11;69.93;;;24.27;;
52434;SDS011;38354;52.892;6.148;2022-12-18T05:03:38;65.70;;;24.40;;
52434;SDS011;38354;52.892;6.148;2022-12-18T05:06:04;63.88;;;22.05;;
52434;SDS011;38354;52.892;6.148;2022-12-18T05:08:30;63.50;;;23.42;;
52434;SDS011;38354;52.892;6.148;2022-12-18T05:13:31;59.85;;;21.88;;
52434;SDS011;38354;52.892;6.148;2022-12-18T05:15:57;65.32;;;24.08;;
52434;SDS011;38354;52.892;6.148;2022-12-18T05:18:23;66.47;;;22.92;;
52434;SDS011;38354;52.892;6.148;2022-12-18T05:20:49;65.32;;;23.95;;
52434;SDS011;38354;52.892;6.148;2022-12-18T05:23:16;65.50;;;21.50;;
52434;SDS011;38354;52.892;6.148;2022-12-18T05:25:42;70.32;;;23.17;;
52434;SDS011;38354;52.892;6.148;2022-12-18T05:28:14;62.78;;;23.58;;
52434;SDS011;38354;52.892;6.148;2022-12-18T05:30:44;61.08;;;22.40;;
52434;SDS011;38354;52.892;6.148;2022-12-18T05:33:13;57.67;;;20.55;;
52434;SDS011;38354;52.892;6.148;2022-12-18T05:35:39;58.70;;;21.52;;
52434;SDS011;38354;52.892;6.148;2022-12-18T05:38:04;62.22;;;22.33;;
52434;SDS011;38354;52.892;6.148;2022-12-18T05:40:30;63.80;;;22.08;;
52434;SDS011;38354;52.892;6.148;2022-12-18T05:42:55;63.60;;;20.70;;
52434;SDS011;38354;52.892;6.148;2022-12-18T05:45:21;56.63;;;22.17;;
52434;SDS011;38354;52.892;6.148;2022-12-18T05:47:47;59.15;;;21.48;;
52434;SDS011;38354;52.892;6.148;2022-12-18T05:50:12;59.90;;;21.30;;
52434;SDS011;38354;52.892;6.148;2022-12-18T05:52:38;58.53;;;20.85;;
52434;SDS011;38354;52.892;6.148;2022-12-18T05:55:03;58.05;;;20.52;;
52434;SDS011;38354;52.892;6.148;2022-12-18T05:57:29;58.60;;;21.50;;
52434;SDS011;38354;52.892;6.148;2022-12-18T05:59:55;60.53;;;21.05;;
52434;SDS011;38354;52.892;6.148;2022-12-18T06:02:21;61.33;;;21.17;;
52434;SDS011;38354;52.892;6.148;2022-12-18T06:04:46;61.38;;;21.52;;
52434;SDS011;38354;52.892;6.148;2022-12-18T06:07:12;61.58;;;22.63;;
52434;SDS011;38354;52.892;6.148;2022-12-18T06:09:38;57.30;;;21.20;;
52434;SDS011;38354;52.892;6.148;2022-12-18T06:12:03;55.15;;;21.02;;
52434;SDS011;38354;52.892;6.148;2022-12-18T06:14:29;60.58;;;21.13;;
52434;SDS011;38354;52.892;6.148;2022-12-18T06:16:55;54.22;;;20.52;;
52434;SDS011;38354;52.892;6.148;2022-12-18T06:19:20;59.55;;;20.67;;
52434;SDS011;38354;52.892;6.148;2022-12-18T06:21:46;53.45;;;20.75;;
52434;SDS011;38354;52.892;6.148;2022-12-18T06:24:12;56.80;;;20.45;;
52434;SDS011;38354;52.892;6.148;2022-12-18T06:26:38;50.60;;;19.30;;
52434;SDS011;38354;52.892;6.148;2022-12-18T06:29:04;58.42;;;20.80;;
52434;SDS011;38354;52.892;6.148;2022-12-18T06:31:30;63.17;;;21.60;;
52434;SDS011;38354;52.892;6.148;2022-12-18T06:33:55;61.67;;;21.88;;
52434;SDS011;38354;52.892;6.148;2022-12-18T06:36:21;55.10;;;19.77;;
52434;SDS011;38354;52.892;6.148;2022-12-18T06:38:47;60.95;;;20.73;;
52434;SDS011;38354;52.892;6.148;2022-12-18T06:41:14;67.65;;;21.02;;
52434;SDS011;38354;52.892;6.148;2022-12-18T06:43:44;53.05;;;19.65;;
52434;SDS011;38354;52.892;6.148;2022-12-18T06:46:10;52.75;;;18.88;;
52434;SDS011;38354;52.892;6.148;2022-12-18T06:48:36;58.95;;;20.45;;
52434;SDS011;38354;52.892;6.148;2022-12-18T06:51:02;51.38;;;18.38;;
52434;SDS011;38354;52.892;6.148;2022-12-18T06:53:28;56.75;;;20.90;;
52434;SDS011;38354;52.892;6.148;2022-12-18T06:56:04;61.38;;;20.40;;
52434;SDS011;38354;52.892;6.148;2022-12-18T06:58:31;55.03;;;19.30;;
52434;SDS011;38354;52.892;6.148;2022-12-18T07:01:01;61.63;;;20.23;;
52434;SDS011;38354;52.892;6.148;2022-12-18T07:03:28;58.20;;;21.13;;
52434;SDS011;38354;52.892;6.148;2022-12-18T07:05:53;49.63;;;19.38;;
52434;SDS011;38354;52.892;6.148;2022-12-18T07:08:19;55.80;;;19.92;;
52434;SDS011;38354;52.892;6.148;2022-12-18T07:10:45;56.75;;;20.15;;
52434;SDS011;38354;52.892;6.148;2022-12-18T07:13:10;52.53;;;18.75;;
52434;SDS011;38354;52.892;6.148;2022-12-18T07:15:36;53.72;;;20.50;;
52434;SDS011;38354;52.892;6.148;2022-12-18T07:18:01;61.75;;;20.17;;
52434;SDS011;38354;52.892;6.148;2022-12-18T07:20:27;58.40;;;20.13;;
52434;SDS011;38354;52.892;6.148;2022-12-18T07:22:53;52.08;;;20.42;;
52434;SDS011;38354;52.892;6.148;2022-12-18T07:25:18;57.88;;;20.05;;
52434;SDS011;38354;52.892;6.148;2022-12-18T07:27:44;53.05;;;19.20;;
52434;SDS011;38354;52.892;6.148;2022-12-18T07:30:10;55.20;;;19.90;;
52434;SDS011;38354;52.892;6.148;2022-12-18T07:32:36;52.85;;;20.90;;
52434;SDS011;38354;52.892;6.148;2022-12-18T07:35:01;54.92;;;19.70;;
52434;SDS011;38354;52.892;6.148;2022-12-18T07:37:27;55.75;;;19.45;;
52434;SDS011;38354;52.892;6.148;2022-12-18T07:39:53;56.90;;;19.85;;
52434;SDS011;38354;52.892;6.148;2022-12-18T07:42:18;42.65;;;16.92;;
52434;SDS011;38354;52.892;6.148;2022-12-18T07:45:00;50.38;;;20.30;;
52434;SDS011;38354;52.892;6.148;2022-12-18T07:47:27;54.97;;;20.10;;
52434;SDS011;38354;52.892;6.148;2022-12-18T07:49:53;53.47;;;19.60;;
52434;SDS011;38354;52.892;6.148;2022-12-18T07:52:19;55.47;;;19.63;;
52434;SDS011;38354;52.892;6.148;2022-12-18T07:54:44;49.10;;;19.00;;
52434;SDS011;38354;52.892;6.148;2022-12-18T07:57:10;51.15;;;19.58;;
52434;SDS011;38354;52.892;6.148;2022-12-18T07:59:36;40.17;;;16.55;;
52434;SDS011;38354;52.892;6.148;2022-12-18T08:02:02;45.45;;;18.85;;
52434;SDS011;38354;52.892;6.148;2022-12-18T08:04:28;44.17;;;17.20;;
52434;SDS011;38354;52.892;6.148;2022-12-18T08:06:53;39.03;;;17.63;;
52434;SDS011;38354;52.892;6.148;2022-12-18T08:09:19;44.28;;;17.90;;
52434;SDS011;38354;52.892;6.148;2022-12-18T08:11:45;45.15;;;18.25;;
52434;SDS011;38354;52.892;6.148;2022-12-18T08:14:10;41.50;;;17.27;;
52434;SDS011;38354;52.892;6.148;2022-12-18T08:16:36;48.28;;;18.50;;
52434;SDS011;38354;52.892;6.148;2022-12-18T08:19:02;44.03;;;17.50;;
52434;SDS011;38354;52.892;6.148;2022-12-18T08:21:29;43.55;;;18.23;;
52434;SDS011;38354;52.892;6.148;2022-12-18T08:23:56;40.08;;;16.70;;
52434;SDS011;38354;52.892;6.148;2022-12-18T08:26:24;39.00;;;16.95;;
52434;SDS011;38354;52.892;6.148;2022-12-18T08:28:53;41.15;;;16.33;;
52434;SDS011;38354;52.892;6.148;2022-12-18T08:31:20;41.70;;;16.48;;
52434;SDS011;38354;52.892;6.148;2022-12-18T08:33:48;38.00;;;16.70;;
52434;SDS011;38354;52.892;6.148;2022-12-18T08:36:15;40.85;;;16.42;;
52434;SDS011;38354;52.892;6.148;2022-12-18T08:38:41;39.40;;;15.77;;
52434;SDS011;38354;52.892;6.148;2022-12-18T08:41:08;40.83;;;16.88;;
52434;SDS011;38354;52.892;6.148;2022-12-18T08:43:35;37.50;;;15.75;;
52434;SDS011;38354;52.892;6.148;2022-12-18T08:46:19;39.78;;;17.92;;
52434;SDS011;38354;52.892;6.148;2022-12-18T08:48:46;35.03;;;15.85;;
52434;SDS011;38354;52.892;6.148;2022-12-18T08:51:12;36.38;;;15.20;;
52434;SDS011;38354;52.892;6.148;2022-12-18T08:53:43;40.38;;;16.75;;
52434;SDS011;38354;52.892;6.148;2022-12-18T08:56:10;36.22;;;16.52;;
52434;SDS011;38354;52.892;6.148;2022-12-18T08:58:37;37.50;;;16.00;;
52434;SDS011;38354;52.892;6.148;2022-12-18T09:01:03;37.75;;;16.50;;
52434;SDS011;38354;52.892;6.148;2022-12-18T09:03:30;35.05;;;15.55;;
52434;SDS011;38354;52.892;6.148;2022-12-18T09:05:56;36.55;;;16.38;;
52434;SDS011;38354;52.892;6.148;2022-12-18T09:08:22;35.88;;;14.75;;
52434;SDS011;38354;52.892;6.148;2022-12-18T09:10:48;39.10;;;16.73;;
52434;SDS011;38354;52.892;6.148;2022-12-18T09:13:15;37.95;;;15.43;;
52434;SDS011;38354;52.892;6.148;2022-12-18T09:15:45;34.72;;;15.35;;
52434;SDS011;38354;52.892;6.148;2022-12-18T09:18:19;33.53;;;15.38;;
52434;SDS011;38354;52.892;6.148;2022-12-18T09:20:45;44.10;;;15.80;;
52434;SDS011;38354;52.892;6.148;2022-12-18T09:23:11;35.92;;;15.40;;
52434;SDS011;38354;52.892;6.148;2022-12-18T09:25:38;33.45;;;15.93;;
52434;SDS011;38354;52.892;6.148;2022-12-18T09:28:05;34.60;;;15.55;;
52434;SDS011;38354;52.892;6.148;2022-12-18T09:30:36;32.65;;;14.73;;
52434;SDS011;38354;52.892;6.148;2022-12-18T09:33:03;29.70;;;14.50;;
52434;SDS011;38354;52.892;6.148;2022-12-18T09:35:28;31.25;;;14.75;;
52434;SDS011;38354;52.892;6.148;2022-12-18T09:37:54;35.90;;;14.65;;
52434;SDS011;38354;52.892;6.148;2022-12-18T09:40:21;32.95;;;15.00;;
52434;SDS011;38354;52.892;6.148;2022-12-18T09:42:59;26.95;;;13.32;;
52434;SDS011;38354;52.892;6.148;2022-12-18T09:45:30;31.58;;;15.05;;
52434;SDS011;38354;52.892;6.148;2022-12-18T09:48:05;30.13;;;13.73;;
52434;SDS011;38354;52.892;6.148;2022-12-18T09:50:36;31.10;;;14.70;;
52434;SDS011;38354;52.892;6.148;2022-12-18T09:53:05;29.70;;;13.75;;
52434;SDS011;38354;52.892;6.148;2022-12-18T09:55:38;46.00;;;15.88;;
52434;SDS011;38354;52.892;6.148;2022-12-18T10:00:54;28.27;;;14.07;;
52434;SDS011;38354;52.892;6.148;2022-12-18T10:03:20;32.13;;;13.88;;
52434;SDS011;38354;52.892;6.148;2022-12-18T10:05:53;27.20;;;13.00;;
52434;SDS011;38354;52.892;6.148;2022-12-18T10:14:11;26.10;;;12.25;;
52434;SDS011;38354;52.892;6.148;2022-12-18T10:26:56;25.58;;;12.77;;
52434;SDS011;38354;52.892;6.148;2022-12-18T10:29:34;25.25;;;11.88;;
52434;SDS011;38354;52.892;6.148;2022-12-18T10:32:00;26.45;;;11.43;;
52434;SDS011;38354;52.892;6.148;2022-12-18T10:34:25;21.10;;;10.15;;
52434;SDS011;38354;52.892;6.148;2022-12-18T10:36:51;21.25;;;9.45;;
52434;SDS011;38354;52.892;6.148;2022-12-18T10:39:20;17.50;;;8.52;;
52434;SDS011;38354;52.892;6.148;2022-12-18T10:41:56;21.42;;;10.25;;
52434;SDS011;38354;52.892;6.148;2022-12-18T10:44:44;17.73;;;8.57;;
52434;SDS011;38354;52.892;6.148;2022-12-18T10:47:15;17.58;;;7.93;;
52434;SDS011;38354;52.892;6.148;2022-12-18T10:49:51;18.35;;;8.35;;
52434;SDS011;38354;52.892;6.148;2022-12-18T10:52:24;17.58;;;8.18;;
52434;SDS011;38354;52.892;6.148;2022-12-18T10:54:51;18.63;;;7.95;;
52434;SDS011;38354;52.892;6.148;2022-12-18T11:02:49;16.25;;;8.32;;
52434;SDS011;38354;52.892;6.148;2022-12-18T11:05:31;17.83;;;8.48;;
52434;SDS011;38354;52.892;6.148;2022-12-18T11:07:59;17.92;;;9.18;;
52434;SDS011;38354;52.892;6.148;2022-12-18T11:10:28;18.42;;;8.60;;
52434;SDS011;38354;52.892;6.148;2022-12-18T11:15:49;19.05;;;9.25;;
52434;SDS011;38354;52.892;6.148;2022-12-18T11:18:23;16.80;;;8.48;;
52434;SDS011;38354;52.892;6.148;2022-12-18T11:23:34;16.88;;;8.05;;
52434;SDS011;38354;52.892;6.148;2022-12-18T11:26:01;17.42;;;8.70;;
52434;SDS011;38354;52.892;6.148;2022-12-18T11:28:34;16.40;;;8.13;;
52434;SDS011;38354;52.892;6.148;2022-12-18T11:31:25;17.50;;;8.05;;
52434;SDS011;38354;52.892;6.148;2022-12-18T11:34:00;16.70;;;7.65;;
52434;SDS011;38354;52.892;6.148;2022-12-18T11:36:33;18.48;;;8.85;;
52434;SDS011;38354;52.892;6.148;2022-12-18T11:39:27;17.05;;;7.78;;
52434;SDS011;38354;52.892;6.148;2022-12-18T11:41:53;16.40;;;7.82;;
52434;SDS011;38354;52.892;6.148;2022-12-18T11:47:44;15.52;;;8.60;;
52434;SDS011;38354;52.892;6.148;2022-12-18T11:50:49;15.52;;;8.52;;
52434;SDS011;38354;52.892;6.148;2022-12-18T11:53:17;17.70;;;8.73;;
52434;SDS011;38354;52.892;6.148;2022-12-18T11:58:47;19.65;;;9.27;;
52434;SDS011;38354;52.892;6.148;2022-12-18T12:01:24;19.05;;;9.32;;
52434;SDS011;38354;52.892;6.148;2022-12-18T12:12:10;16.67;;;8.60;;
52434;SDS011;38354;52.892;6.148;2022-12-18T12:27:56;18.70;;;9.30;;
52434;SDS011;38354;52.892;6.148;2022-12-18T12:30:55;16.40;;;8.60;;
52434;SDS011;38354;52.892;6.148;2022-12-18T12:33:49;15.43;;;8.60;;
52434;SDS011;38354;52.892;6.148;2022-12-18T12:36:30;14.52;;;7.40;;
52434;SDS011;38354;52.892;6.148;2022-12-18T12:39:06;13.85;;;7.35;;
52434;SDS011;38354;52.892;6.148;2022-12-18T12:41:38;15.65;;;7.15;;
52434;SDS011;38354;52.892;6.148;2022-12-18T12:44:26;15.48;;;8.13;;
52434;SDS011;38354;52.892;6.148;2022-12-18T12:46:59;15.02;;;7.50;;
52434;SDS011;38354;52.892;6.148;2022-12-18T12:49:30;12.05;;;6.90;;
52434;SDS011;38354;52.892;6.148;2022-12-18T12:52:10;14.63;;;7.32;;
52434;SDS011;38354;52.892;6.148;2022-12-18T12:54:52;15.85;;;7.10;;
52434;SDS011;38354;52.892;6.148;2022-12-18T13:00:30;13.75;;;7.25;;
52434;SDS011;38354;52.892;6.148;2022-12-18T13:03:15;15.73;;;8.10;;
52434;SDS011;38354;52.892;6.148;2022-12-18T13:08:29;12.02;;;6.90;;
52434;SDS011;38354;52.892;6.148;2022-12-18T13:10:57;12.05;;;6.25;;
52434;SDS011;38354;52.892;6.148;2022-12-18T13:13:49;13.55;;;6.40;;
52434;SDS011;38354;52.892;6.148;2022-12-18T13:16:20;12.35;;;6.35;;
52434;SDS011;38354;52.892;6.148;2022-12-18T13:18:54;11.57;;;6.13;;
52434;SDS011;38354;52.892;6.148;2022-12-18T13:21:27;13.13;;;6.60;;
52434;SDS011;38354;52.892;6.148;2022-12-18T13:23:55;15.55;;;6.30;;
52434;SDS011;38354;52.892;6.148;2022-12-18T13:28:55;13.95;;;7.07;;
52434;SDS011;38354;52.892;6.148;2022-12-18T13:36:42;13.23;;;6.18;;
52434;SDS011;38354;52.892;6.148;2022-12-18T13:39:53;16.08;;;8.52;;
52434;SDS011;38354;52.892;6.148;2022-12-18T13:47:03;11.98;;;7.00;;
52434;SDS011;38354;52.892;6.148;2022-12-18T13:52:02;10.05;;;5.57;;
52434;SDS011;38354;52.892;6.148;2022-12-18T13:54:39;13.07;;;6.65;;
52434;SDS011;38354;52.892;6.148;2022-12-18T13:57:24;13.10;;;6.28;;
52434;SDS011;38354;52.892;6.148;2022-12-18T13:59:54;12.95;;;6.30;;
52434;SDS011;38354;52.892;6.148;2022-12-18T14:02:22;12.77;;;6.32;;
52434;SDS011;38354;52.892;6.148;2022-12-18T14:04:50;14.23;;;8.18;;
52434;SDS011;38354;52.892;6.148;2022-12-18T14:07:17;13.75;;;6.60;;
52434;SDS011;38354;52.892;6.148;2022-12-18T14:09:55;13.40;;;6.32;;
52434;SDS011;38354;52.892;6.148;2022-12-18T14:12:30;9.48;;;5.53;;
52434;SDS011;38354;52.892;6.148;2022-12-18T14:17:51;10.75;;;5.85;;
52434;SDS011;38354;52.892;6.148;2022-12-18T14:20:25;11.18;;;6.15;;
52434;SDS011;38354;52.892;6.148;2022-12-18T14:22:52;12.98;;;5.82;;
52434;SDS011;38354;52.892;6.148;2022-12-18T14:25:22;11.25;;;5.50;;
52434;SDS011;38354;52.892;6.148;2022-12-18T14:33:09;12.85;;;5.90;;
52434;SDS011;38354;52.892;6.148;2022-12-18T14:35:40;12.20;;;6.03;;
52434;SDS011;38354;52.892;6.148;2022-12-18T14:41:02;11.52;;;5.45;;
52434;SDS011;38354;52.892;6.148;2022-12-18T14:43:36;12.07;;;6.03;;
52434;SDS011;38354;52.892;6.148;2022-12-18T14:46:24;14.13;;;6.88;;
52434;SDS011;38354;52.892;6.148;2022-12-18T14:48:57;10.82;;;5.82;;
52434;SDS011;38354;52.892;6.148;2022-12-18T14:51:29;13.18;;;6.25;;
52434;SDS011;38354;52.892;6.148;2022-12-18T14:54:06;10.77;;;6.03;;
52434;SDS011;38354;52.892;6.148;2022-12-18T14:56:51;11.45;;;5.85;;
52434;SDS011;38354;52.892;6.148;2022-12-18T14:59:26;12.13;;;6.00;;
52434;SDS011;38354;52.892;6.148;2022-12-18T15:02:00;10.95;;;5.70;;
52434;SDS011;38354;52.892;6.148;2022-12-18T15:04:47;10.23;;;5.72;;
52434;SDS011;38354;52.892;6.148;2022-12-18T15:07:25;10.13;;;5.38;;
52434;SDS011;38354;52.892;6.148;2022-12-18T15:12:37;14.30;;;5.43;;
52434;SDS011;38354;52.892;6.148;2022-12-18T15:20:49;10.73;;;5.50;;
52434;SDS011;38354;52.892;6.148;2022-12-18T15:25:58;10.68;;;5.40;;
52434;SDS011;38354;52.892;6.148;2022-12-18T15:28:36;11.55;;;6.78;;
52434;SDS011;38354;52.892;6.148;2022-12-18T15:33:42;9.90;;;5.60;;
52434;SDS011;38354;52.892;6.148;2022-12-18T15:36:18;10.63;;;5.15;;
52434;SDS011;38354;52.892;6.148;2022-12-18T15:38:49;10.20;;;5.50;;
52434;SDS011;38354;52.892;6.148;2022-12-18T15:41:16;12.02;;;5.65;;
52434;SDS011;38354;52.892;6.148;2022-12-18T15:43:47;10.98;;;5.43;;
52434;SDS011;38354;52.892;6.148;2022-12-18T15:46:22;13.23;;;5.95;;
52434;SDS011;38354;52.892;6.148;2022-12-18T15:48:52;12.93;;;6.00;;
52434;SDS011;38354;52.892;6.148;2022-12-18T15:51:26;11.77;;;6.30;;
52434;SDS011;38354;52.892;6.148;2022-12-18T15:54:01;10.20;;;5.43;;
52434;SDS011;38354;52.892;6.148;2022-12-18T15:56:30;10.32;;;5.63;;
52434;SDS011;38354;52.892;6.148;2022-12-18T15:59:15;17.60;;;6.50;;
52434;SDS011;38354;52.892;6.148;2022-12-18T16:01:44;11.40;;;6.10;;
52434;SDS011;38354;52.892;6.148;2022-12-18T16:04:12;14.98;;;6.93;;
52434;SDS011;38354;52.892;6.148;2022-12-18T16:06:40;11.18;;;5.80;;
52434;SDS011;38354;52.892;6.148;2022-12-18T16:09:06;13.52;;;6.63;;
52434;SDS011;38354;52.892;6.148;2022-12-18T16:11:33;14.52;;;6.97;;
52434;SDS011;38354;52.892;6.148;2022-12-18T16:14:21;12.15;;;6.57;;
52434;SDS011;38354;52.892;6.148;2022-12-18T16:16:52;11.35;;;6.15;;
52434;SDS011;38354;52.892;6.148;2022-12-18T16:19:20;15.50;;;6.60;;
52434;SDS011;38354;52.892;6.148;2022-12-18T16:21:46;13.05;;;6.78;;
52434;SDS011;38354;52.892;6.148;2022-12-18T16:24:17;13.00;;;6.97;;
52434;SDS011;38354;52.892;6.148;2022-12-18T16:26:47;13.40;;;6.70;;
52434;SDS011;38354;52.892;6.148;2022-12-18T16:29:13;14.80;;;7.00;;
52434;SDS011;38354;52.892;6.148;2022-12-18T16:31:39;13.30;;;7.00;;
52434;SDS011;38354;52.892;6.148;2022-12-18T16:36:53;13.00;;;6.03;;
52434;SDS011;38354;52.892;6.148;2022-12-18T16:39:20;12.77;;;6.85;;
52434;SDS011;38354;52.892;6.148;2022-12-18T16:41:46;15.23;;;7.10;;
52434;SDS011;38354;52.892;6.148;2022-12-18T16:44:12;13.15;;;6.95;;
52434;SDS011;38354;52.892;6.148;2022-12-18T16:46:39;13.00;;;6.78;;
52434;SDS011;38354;52.892;6.148;2022-12-18T16:49:04;14.85;;;7.00;;
52434;SDS011;38354;52.892;6.148;2022-12-18T16:51:33;12.10;;;6.47;;
52434;SDS011;38354;52.892;6.148;2022-12-18T16:53:59;9.38;;;5.60;;
52434;SDS011;38354;52.892;6.148;2022-12-18T16:56:25;14.18;;;7.25;;
52434;SDS011;38354;52.892;6.148;2022-12-18T16:58:51;13.85;;;6.55;;
52434;SDS011;38354;52.892;6.148;2022-12-18T17:01:18;13.98;;;7.15;;
52434;SDS011;38354;52.892;6.148;2022-12-18T17:03:44;12.52;;;6.93;;
52434;SDS011;38354;52.892;6.148;2022-12-18T17:06:15;11.73;;;6.60;;
52434;SDS011;38354;52.892;6.148;2022-12-18T17:08:41;14.45;;;7.72;;
52434;SDS011;38354;52.892;6.148;2022-12-18T17:11:06;14.40;;;7.57;;
52434;SDS011;38354;52.892;6.148;2022-12-18T17:13:33;13.52;;;6.95;;
52434;SDS011;38354;52.892;6.148;2022-12-18T17:16:05;11.98;;;6.57;;
52434;SDS011;38354;52.892;6.148;2022-12-18T17:18:32;13.95;;;7.45;;
52434;SDS011;38354;52.892;6.148;2022-12-18T17:21:02;12.15;;;6.47;;
52434;SDS011;38354;52.892;6.148;2022-12-18T17:23:30;15.15;;;7.35;;
52434;SDS011;38354;52.892;6.148;2022-12-18T17:25:56;13.13;;;6.85;;
52434;SDS011;38354;52.892;6.148;2022-12-18T17:28:22;12.60;;;6.70;;
52434;SDS011;38354;52.892;6.148;2022-12-18T17:30:50;15.75;;;7.22;;
52434;SDS011;38354;52.892;6.148;2022-12-18T17:33:19;14.15;;;7.68;;
52434;SDS011;38354;52.892;6.148;2022-12-18T17:35:45;15.25;;;7.53;;
52434;SDS011;38354;52.892;6.148;2022-12-18T17:38:11;15.90;;;8.07;;
52434;SDS011;38354;52.892;6.148;2022-12-18T17:40:36;15.75;;;7.10;;
52434;SDS011;38354;52.892;6.148;2022-12-18T17:43:04;15.70;;;7.88;;
52434;SDS011;38354;52.892;6.148;2022-12-18T17:45:31;15.32;;;7.70;;
52434;SDS011;38354;52.892;6.148;2022-12-18T17:48:00;13.30;;;7.15;;
52434;SDS011;38354;52.892;6.148;2022-12-18T17:50:26;14.20;;;8.07;;
52434;SDS011;38354;52.892;6.148;2022-12-18T17:52:54;15.63;;;7.63;;
52434;SDS011;38354;52.892;6.148;2022-12-18T17:55:21;16.10;;;7.65;;
52434;SDS011;38354;52.892;6.148;2022-12-18T17:57:47;13.70;;;7.78;;
52434;SDS011;38354;52.892;6.148;2022-12-18T18:00:13;14.32;;;7.82;;
52434;SDS011;38354;52.892;6.148;2022-12-18T18:02:39;13.45;;;6.93;;
52434;SDS011;38354;52.892;6.148;2022-12-18T18:05:05;16.05;;;8.38;;
52434;SDS011;38354;52.892;6.148;2022-12-18T18:07:31;15.10;;;7.70;;
52434;SDS011;38354;52.892;6.148;2022-12-18T18:09:56;16.55;;;8.57;;
52434;SDS011;38354;52.892;6.148;2022-12-18T18:12:22;14.82;;;7.57;;
52434;SDS011;38354;52.892;6.148;2022-12-18T18:15:06;16.80;;;7.85;;
52434;SDS011;38354;52.892;6.148;2022-12-18T18:17:32;15.35;;;7.82;;
52434;SDS011;38354;52.892;6.148;2022-12-18T18:19:57;14.13;;;7.53;;
52434;SDS011;38354;52.892;6.148;2022-12-18T18:22:23;16.83;;;8.15;;
52434;SDS011;38354;52.892;6.148;2022-12-18T18:24:59;17.33;;;8.30;;
52434;SDS011;38354;52.892;6.148;2022-12-18T18:27:26;16.77;;;8.60;;
52434;SDS011;38354;52.892;6.148;2022-12-18T18:29:51;13.80;;;7.10;;
52434;SDS011;38354;52.892;6.148;2022-12-18T18:32:17;16.85;;;8.57;;
52434;SDS011;38354;52.892;6.148;2022-12-18T18:34:43;15.57;;;8.07;;
52434;SDS011;38354;52.892;6.148;2022-12-18T18:37:09;18.80;;;9.13;;
52434;SDS011;38354;52.892;6.148;2022-12-18T18:39:35;19.35;;;8.90;;
52434;SDS011;38354;52.892;6.148;2022-12-18T18:42:01;19.02;;;9.82;;
52434;SDS011;38354;52.892;6.148;2022-12-18T18:44:27;17.17;;;8.98;;
52434;SDS011;38354;52.892;6.148;2022-12-18T18:46:54;18.75;;;9.52;;
52434;SDS011;38354;52.892;6.148;2022-12-18T18:49:20;19.40;;;10.23;;
52434;SDS011;38354;52.892;6.148;2022-12-18T18:51:49;18.30;;;9.50;;
52434;SDS011;38354;52.892;6.148;2022-12-18T18:54:14;18.63;;;9.27;;
52434;SDS011;38354;52.892;6.148;2022-12-18T18:56:40;20.52;;;10.10;;
52434;SDS011;38354;52.892;6.148;2022-12-18T18:59:06;18.17;;;10.55;;
52434;SDS011;38354;52.892;6.148;2022-12-18T19:01:31;21.48;;;10.10;;
52434;SDS011;38354;52.892;6.148;2022-12-18T19:03:57;21.85;;;11.18;;
52434;SDS011;38354;52.892;6.148;2022-12-18T19:06:24;33.58;;;13.68;;
52434;SDS011;38354;52.892;6.148;2022-12-18T19:08:52;22.73;;;10.82;;
52434;SDS011;38354;52.892;6.148;2022-12-18T19:11:18;24.85;;;10.27;;
52434;SDS011;38354;52.892;6.148;2022-12-18T19:14:13;23.45;;;11.02;;
52434;SDS011;38354;52.892;6.148;2022-12-18T19:16:39;22.15;;;10.52;;
52434;SDS011;38354;52.892;6.148;2022-12-18T19:19:05;21.02;;;10.20;;
52434;SDS011;38354;52.892;6.148;2022-12-18T19:21:32;21.15;;;11.38;;
52434;SDS011;38354;52.892;6.148;2022-12-18T19:23:58;27.83;;;12.73;;
52434;SDS011;38354;52.892;6.148;2022-12-18T19:26:24;23.25;;;12.25;;
52434;SDS011;38354;52.892;6.148;2022-12-18T19:28:49;25.58;;;12.10;;
52434;SDS011;38354;52.892;6.148;2022-12-18T19:31:16;21.45;;;11.50;;
52434;SDS011;38354;52.892;6.148;2022-12-18T19:33:45;22.13;;;11.32;;
52434;SDS011;38354;52.892;6.148;2022-12-18T19:36:34;26.23;;;11.15;;
52434;SDS011;38354;52.892;6.148;2022-12-18T19:38:59;24.95;;;12.13;;
52434;SDS011;38354;52.892;6.148;2022-12-18T19:41:26;22.13;;;11.77;;
52434;SDS011;38354;52.892;6.148;2022-12-18T19:43:53;25.60;;;12.65;;
52434;SDS011;38354;52.892;6.148;2022-12-18T19:46:20;23.27;;;11.80;;
52434;SDS011;38354;52.892;6.148;2022-12-18T19:48:46;24.27;;;12.55;;
52434;SDS011;38354;52.892;6.148;2022-12-18T19:51:14;24.45;;;12.90;;
52434;SDS011;38354;52.892;6.148;2022-12-18T19:53:44;25.73;;;13.30;;
52434;SDS011;38354;52.892;6.148;2022-12-18T19:56:12;32.45;;;14.00;;
52434;SDS011;38354;52.892;6.148;2022-12-18T19:58:40;27.90;;;13.70;;
52434;SDS011;38354;52.892;6.148;2022-12-18T20:01:06;28.10;;;13.82;;
52434;SDS011;38354;52.892;6.148;2022-12-18T20:03:39;33.15;;;13.50;;
52434;SDS011;38354;52.892;6.148;2022-12-18T20:06:14;28.80;;;14.23;;
52434;SDS011;38354;52.892;6.148;2022-12-18T20:08:43;27.63;;;14.15;;
52434;SDS011;38354;52.892;6.148;2022-12-18T20:11:08;30.65;;;14.95;;
52434;SDS011;38354;52.892;6.148;2022-12-18T20:13:35;30.52;;;14.45;;
52434;SDS011;38354;52.892;6.148;2022-12-18T20:16:01;29.60;;;14.65;;
52434;SDS011;38354;52.892;6.148;2022-12-18T20:18:27;29.77;;;14.07;;
52434;SDS011;38354;52.892;6.148;2022-12-18T20:20:52;29.55;;;14.95;;
52434;SDS011;38354;52.892;6.148;2022-12-18T20:23:18;31.42;;;15.38;;
52434;SDS011;38354;52.892;6.148;2022-12-18T20:25:45;27.00;;;14.88;;
52434;SDS011;38354;52.892;6.148;2022-12-18T20:28:11;31.63;;;14.55;;
52434;SDS011;38354;52.892;6.148;2022-12-18T20:30:37;31.98;;;15.88;;
52434;SDS011;38354;52.892;6.148;2022-12-18T20:33:02;31.17;;;15.15;;
52434;SDS011;38354;52.892;6.148;2022-12-18T20:35:28;40.65;;;16.55;;
52434;SDS011;38354;52.892;6.148;2022-12-18T20:37:55;30.80;;;14.38;;
52434;SDS011;38354;52.892;6.148;2022-12-18T20:40:21;35.13;;;17.50;;
52434;SDS011;38354;52.892;6.148;2022-12-18T20:42:47;30.45;;;14.65;;
52434;SDS011;38354;52.892;6.148;2022-12-18T20:45:13;30.88;;;15.77;;
52434;SDS011;38354;52.892;6.148;2022-12-18T20:47:38;32.33;;;15.50;;
52434;SDS011;38354;52.892;6.148;2022-12-18T20:50:04;31.33;;;15.50;;
52434;SDS011;38354;52.892;6.148;2022-12-18T20:52:30;32.35;;;15.57;;
52434;SDS011;38354;52.892;6.148;2022-12-18T20:54:56;35.58;;;15.50;;
52434;SDS011;38354;52.892;6.148;2022-12-18T20:57:22;31.65;;;15.55;;
52434;SDS011;38354;52.892;6.148;2022-12-18T20:59:48;36.20;;;16.17;;
52434;SDS011;38354;52.892;6.148;2022-12-18T21:02:15;35.95;;;17.70;;
52434;SDS011;38354;52.892;6.148;2022-12-18T21:04:41;33.80;;;16.20;;
52434;SDS011;38354;52.892;6.148;2022-12-18T21:07:06;30.77;;;15.45;;
52434;SDS011;38354;52.892;6.148;2022-12-18T21:09:32;36.63;;;16.92;;
52434;SDS011;38354;52.892;6.148;2022-12-18T21:11:59;35.35;;;17.38;;
52434;SDS011;38354;52.892;6.148;2022-12-18T21:14:43;35.08;;;16.33;;
52434;SDS011;38354;52.892;6.148;2022-12-18T21:17:09;31.67;;;16.15;;
52434;SDS011;38354;52.892;6.148;2022-12-18T21:19:35;34.53;;;16.70;;
52434;SDS011;38354;52.892;6.148;2022-12-18T21:22:01;37.78;;;17.17;;
52434;SDS011;38354;52.892;6.148;2022-12-18T21:24:27;31.13;;;16.52;;
52434;SDS011;38354;52.892;6.148;2022-12-18T21:26:53;33.22;;;16.35;;
52434;SDS011;38354;52.892;6.148;2022-12-18T21:29:19;33.97;;;17.33;;